Accueil
METAR-TAF:

METAR-TAF

Aéroports :

Station RAF de Northolt

Northolt, Angleterre

latitude: 51-33N, longitude: 000-25W, altitude: 38 m

Observation

Le bulletin a été fait il y a 35 minutes, à 11:50 UTC
Vent 5 kt de sud/sud-ouest
Température 23°C
Humidité 44%
Pression 1018 hPa
Visibilité 10 km ou plus
Quelques nuages à une hauteur de 4500 ft
Nuages fragmentés à une hauteur de 7000 ft

METAR: EGWU 181150Z 20005KT 9999 FEW045 BKN070 23/10 Q1018 NOSIG

Heure: 13:25 (12:25 UTC)

Prévision

Le bulletin a été fait il y a 2 heures et 10 minutes, à 10:15 UTC
Prévision valable du 18 à 12 UTC au 19 à 06 UTC
Vent 5 kt de ouest/sud-ouest
Visibilité 10 km ou plus
Quelques nuages à une hauteur de 4500 ft
Probabilité 30%
du 19 à 03 UTC au 19 à 06 UTC
Visibilité: 7000 m
brume sèche

TAF: EGWU 181015Z 1812/1906 24005KT 9999 FEW045 PROB30 1903/1906 7000 HZ

Observations et prévisions météorologiques de plus de 4000 aéroports (messages METAR et TAF).

Les stations disponibles sont représentées par des disques jaunes et rouges sur la carte.

Passer la souris dessus pour voir le nom de la station.

Cliquer dessus pour voir les observations et prévisions météorologiques.

Pour changer de carte: cliquez sur les boutons verts avec une croix noire pour zoomer, sur le bouton vert avec un tiret pour effectuer un zoom arrière, ou sur les flèches vertes pour les cartes adjacentes.


METAR-TAF: